createdAt,value
2022-11-29T00:01:45.303Z,3.74
2022-11-29T00:06:48.989Z,3.34
2022-11-29T00:12:12.366Z,4.18
2022-11-29T00:17:15.972Z,4.23
2022-11-29T00:22:19.617Z,2.44
2022-11-29T00:27:23.403Z,2.31
2022-11-29T00:32:26.967Z,3.49
2022-11-29T00:37:30.647Z,2.51
2022-11-29T00:42:34.600Z,3.51
2022-11-29T00:47:38.345Z,2.86
2022-11-29T00:52:41.905Z,2.70
2022-11-29T00:57:45.599Z,1.92
2022-11-29T01:02:49.209Z,2.54
2022-11-29T01:07:52.986Z,3.10
2022-11-29T01:12:57.589Z,2.67
2022-11-29T01:18:02.195Z,1.92
2022-11-29T01:23:05.713Z,2.98
2022-11-29T01:28:09.378Z,1.99
2022-11-29T01:33:13.109Z,1.80
2022-11-29T01:38:17.964Z,3.24
2022-11-29T01:43:22.110Z,3.19
2022-11-29T01:48:31.230Z,2.97
2022-11-29T01:53:35.438Z,2.50
2022-11-29T01:58:39.456Z,2.86
2022-11-29T02:03:43.198Z,3.24
2022-11-29T02:08:46.953Z,2.98
2022-11-29T02:13:50.681Z,3.35
2022-11-29T02:19:12.594Z,3.26
2022-11-29T02:24:38.682Z,3.05
2022-11-29T02:30:05.245Z,3.37
2022-11-29T02:35:18.102Z,3.40
2022-11-29T02:40:49.279Z,3.44
2022-11-29T02:46:28.629Z,3.46
2022-11-29T02:51:43.845Z,3.22
2022-11-29T02:56:56.360Z,3.46
2022-11-29T03:02:06.080Z,3.48
2022-11-29T03:07:20.977Z,2.00
2022-11-29T03:12:45.974Z,3.40
2022-11-29T03:18:02.865Z,3.16
2022-11-29T03:23:15.808Z,3.46
2022-11-29T03:28:44.568Z,3.44
2022-11-29T03:34:32.229Z,3.52
2022-11-29T03:39:45.593Z,3.44
2022-11-29T03:45:08.851Z,2.82
2022-11-29T03:50:17.137Z,3.51
2022-11-29T03:55:53.194Z,3.46
2022-11-29T04:01:27.744Z,3.68
2022-11-29T04:06:59.529Z,3.13
2022-11-29T04:12:40.738Z,3.59
2022-11-29T04:18:10.308Z,3.61
2022-11-29T04:23:51.152Z,3.53
2022-11-29T04:29:09.085Z,3.48
2022-11-29T04:34:30.696Z,3.57
2022-11-29T04:39:56.040Z,3.47
2022-11-29T04:45:11.568Z,3.52
2022-11-29T04:50:24.348Z,3.52
2022-11-29T04:55:42.278Z,2.78
2022-11-29T05:01:16.138Z,3.55
2022-11-29T05:06:30.634Z,2.65
2022-11-29T05:12:12.080Z,3.48
2022-11-29T05:17:50.887Z,3.40
2022-11-29T05:23:24.726Z,3.44
2022-11-29T05:28:50.219Z,2.98
2022-11-29T05:34:25.781Z,3.47
2022-11-29T05:40:12.655Z,3.41
2022-11-29T05:45:37.974Z,2.86
2022-11-29T05:50:48.787Z,3.39
2022-11-29T05:56:03.646Z,3.41
2022-11-29T06:01:30.877Z,3.27
2022-11-29T06:06:44.487Z,3.44
2022-11-29T06:11:54.644Z,3.39
2022-11-29T06:17:20.551Z,3.46
2022-11-29T06:22:36.661Z,3.46
2022-11-29T06:28:08.639Z,3.43
2022-11-29T06:33:21.309Z,3.30
2022-11-29T06:38:32.867Z,2.94
2022-11-29T06:43:36.867Z,3.50
2022-11-29T06:48:50.522Z,3.11
2022-11-29T06:54:09.593Z,3.72
2022-11-29T06:59:25.781Z,3.84
2022-11-29T07:04:42.616Z,3.31
2022-11-29T07:09:52.405Z,3.70
2022-11-29T07:14:56.527Z,2.06
2022-11-29T07:20:09.600Z,3.48
2022-11-29T07:25:52.678Z,3.30
2022-11-29T07:31:03.319Z,3.52
2022-11-29T07:36:19.286Z,3.48
2022-11-29T07:41:36.882Z,2.88
2022-11-29T07:46:40.420Z,3.33
2022-11-29T07:51:44.250Z,3.59
2022-11-29T07:56:47.897Z,3.58
2022-11-29T08:01:51.451Z,2.91
2022-11-29T08:06:55.033Z,3.24
2022-11-29T08:11:58.706Z,3.34
2022-11-29T08:17:02.322Z,3.51
2022-11-29T08:22:06.374Z,3.91
2022-11-29T08:27:13.752Z,2.65
2022-11-29T08:32:17.180Z,3.83
2022-11-29T08:37:27.170Z,3.59
2022-11-29T08:42:30.916Z,2.40
2022-11-29T08:47:37.242Z,3.94
2022-11-29T08:53:02.556Z,4.03
2022-11-29T08:58:08.518Z,4.03
2022-11-29T09:03:30.623Z,3.00
2022-11-29T09:08:34.187Z,3.46
2022-11-29T09:13:37.733Z,3.89
2022-11-29T09:18:44.880Z,2.62
2022-11-29T09:23:59.675Z,3.32
2022-11-29T09:29:06.275Z,3.31
2022-11-29T09:34:16.015Z,4.07
2022-11-29T09:39:19.792Z,4.08
2022-11-29T09:44:45.005Z,4.24
2022-11-29T09:50:13.585Z,4.38
2022-11-29T09:55:26.218Z,4.39
2022-11-29T10:00:32.629Z,4.23
2022-11-29T10:05:42.141Z,4.05
2022-11-29T10:10:48.478Z,3.99
2022-11-29T10:15:57.134Z,4.05
2022-11-29T10:21:07.429Z,4.55
2022-11-29T10:26:13.579Z,4.55
2022-11-29T10:31:27.793Z,4.76
2022-11-29T10:36:45.976Z,4.27
2022-11-29T10:41:57.327Z,3.66
2022-11-29T10:47:07.812Z,4.59
2022-11-29T10:52:20.738Z,4.68
2022-11-29T10:57:24.849Z,4.18
2022-11-29T11:02:28.812Z,4.41
2022-11-29T11:07:36.997Z,4.72
2022-11-29T11:12:40.499Z,3.10
2022-11-29T11:18:07.513Z,4.62
2022-11-29T11:23:30.674Z,4.82
2022-11-29T11:28:52.051Z,4.76
2022-11-29T11:33:55.999Z,4.17
2022-11-29T11:39:14.157Z,4.27
2022-11-29T11:44:48.890Z,4.50
2022-11-29T11:50:05.605Z,4.69
2022-11-29T11:55:36.700Z,4.67
2022-11-29T12:01:07.091Z,4.60
2022-11-29T12:06:48.320Z,4.62
2022-11-29T12:11:51.804Z,4.67
2022-11-29T12:17:06.279Z,4.69
2022-11-29T12:22:17.619Z,4.29
2022-11-29T12:27:21.207Z,4.78
2022-11-29T12:32:57.194Z,4.82
2022-11-29T12:38:20.778Z,4.92
2022-11-29T12:43:42.956Z,4.93
2022-11-29T12:49:18.971Z,4.53
2022-11-29T12:54:28.453Z,4.84
2022-11-29T13:00:11.743Z,4.90
2022-11-29T13:05:37.101Z,4.75
2022-11-29T13:11:18.178Z,4.76
2022-11-29T13:16:31.596Z,4.69
2022-11-29T13:21:51.675Z,4.71
2022-11-29T13:26:56.127Z,4.42
2022-11-29T13:32:00.263Z,4.92
2022-11-29T13:37:22.795Z,4.90
2022-11-29T13:42:51.864Z,4.88
2022-11-29T13:47:59.091Z,4.97
2022-11-29T13:53:14.379Z,5.06
2022-11-29T13:58:39.093Z,5.18
2022-11-29T14:03:49.101Z,5.11
2022-11-29T14:09:17.729Z,5.30
2022-11-29T14:14:29.352Z,5.15
2022-11-29T14:19:36.060Z,5.16
2022-11-29T14:24:41.624Z,4.64
2022-11-29T14:29:53.543Z,4.83
2022-11-29T14:35:12.358Z,4.74
2022-11-29T14:40:30.785Z,4.47
2022-11-29T14:45:35.548Z,3.58
2022-11-29T14:50:42.975Z,4.11
2022-11-29T14:55:46.405Z,3.76
2022-11-29T15:00:49.778Z,4.22
2022-11-29T15:06:18.115Z,4.15
2022-11-29T15:11:38.118Z,4.10
2022-11-29T15:17:05.245Z,4.00
2022-11-29T15:22:23.227Z,3.83
2022-11-29T15:27:27.218Z,3.17
2022-11-29T15:32:33.497Z,3.09
2022-11-29T15:37:51.005Z,3.77
2022-11-29T15:43:02.766Z,2.15
2022-11-29T15:48:18.463Z,3.78
2022-11-29T15:53:36.594Z,3.78
2022-11-29T15:58:40.620Z,2.21
2022-11-29T16:03:46.467Z,3.63
2022-11-29T16:08:50.834Z,3.70
2022-11-29T16:14:00.664Z,3.77
2022-11-29T16:19:31.127Z,3.71
2022-11-29T16:24:35.539Z,3.30
2022-11-29T16:29:45.913Z,3.40
2022-11-29T16:34:49.484Z,2.65
2022-11-29T16:40:00.019Z,3.55
2022-11-29T16:45:07.710Z,3.68
2022-11-29T16:50:21.169Z,2.98
2022-11-29T16:55:25.198Z,3.26
2022-11-29T17:00:34.134Z,3.51
2022-11-29T17:05:43.145Z,3.53
2022-11-29T17:10:48.174Z,3.24
2022-11-29T17:15:51.568Z,1.78
2022-11-29T17:20:58.358Z,2.89
2022-11-29T17:26:03.475Z,3.46
2022-11-29T17:31:11.848Z,2.88
2022-11-29T17:36:19.323Z,3.34
2022-11-29T17:41:25.283Z,3.47
2022-11-29T17:46:31.548Z,3.42
2022-11-29T17:51:57.249Z,3.43
2022-11-29T17:57:01.625Z,3.42
2022-11-29T18:02:05.560Z,1.58
2022-11-29T18:07:09.131Z,3.32
2022-11-29T18:12:13.144Z,3.13
2022-11-29T18:17:17.708Z,2.24
2022-11-29T18:22:21.253Z,3.23
2022-11-29T18:27:24.843Z,2.50
2022-11-29T18:32:28.636Z,2.96
2022-11-29T18:38:05.021Z,2.67
2022-11-29T18:42:55.469Z,2.90
2022-11-29T18:47:59.520Z,2.53
2022-11-29T18:53:03.030Z,2.92
2022-11-29T18:58:08.849Z,3.20
2022-11-29T19:03:12.217Z,3.15
2022-11-29T19:08:15.587Z,2.65
2022-11-29T19:13:19.083Z,2.01
2022-11-29T19:18:23.825Z,3.17
2022-11-29T19:23:27.613Z,3.18
2022-11-29T19:28:31.660Z,3.10
2022-11-29T19:33:36.547Z,3.09
2022-11-29T19:38:40.801Z,3.06
2022-11-29T19:43:44.883Z,3.19
2022-11-29T19:48:49.025Z,2.90
2022-11-29T19:53:54.367Z,3.27
2022-11-29T19:58:58.356Z,2.95
2022-11-29T20:04:02.270Z,3.33
2022-11-29T20:09:05.282Z,3.30
2022-11-29T20:14:09.029Z,2.62
2022-11-29T20:19:14.734Z,3.34
2022-11-29T20:24:20.344Z,3.36
2022-11-29T20:29:27.948Z,3.13
2022-11-29T20:34:30.776Z,3.27
2022-11-29T20:39:49.490Z,3.26
2022-11-29T20:44:55.597Z,3.28
2022-11-29T20:49:58.565Z,3.02
2022-11-29T20:55:02.114Z,2.81
2022-11-29T21:00:11.547Z,2.97
2022-11-29T21:05:14.298Z,3.03
2022-11-29T21:10:20.184Z,2.54
2022-11-29T21:15:33.232Z,3.23
2022-11-29T21:20:36.025Z,3.34
2022-11-29T21:26:00.413Z,3.45
2022-11-29T21:31:03.437Z,3.36
2022-11-29T21:36:09.663Z,2.87
2022-11-29T21:41:21.607Z,2.23
2022-11-29T21:46:24.324Z,2.76
2022-11-29T21:51:27.324Z,2.81
2022-11-29T21:56:30.113Z,1.82
2022-11-29T22:01:34.556Z,2.82
2022-11-29T22:06:37.777Z,3.04
2022-11-29T22:11:41.578Z,3.42
2022-11-29T22:16:47.193Z,3.45
2022-11-29T22:21:52.417Z,3.46
2022-11-29T22:26:57.120Z,2.86
2022-11-29T22:32:00.878Z,1.88
2022-11-29T22:37:03.560Z,2.28
2022-11-29T22:42:06.502Z,3.45
2022-11-29T22:47:09.188Z,3.38
2022-11-29T22:52:11.959Z,3.10
2022-11-29T22:57:14.846Z,2.40
2022-11-29T23:02:17.530Z,2.19
2022-11-29T23:07:20.368Z,3.01
2022-11-29T23:12:23.279Z,3.04
2022-11-29T23:17:25.983Z,1.93
2022-11-29T23:22:28.814Z,2.18
2022-11-29T23:27:33.797Z,2.16
2022-11-29T23:32:36.459Z,3.21
2022-11-29T23:37:39.138Z,2.71
2022-11-29T23:42:45.092Z,3.15
2022-11-29T23:47:50.416Z,2.48
2022-11-29T23:52:56.690Z,2.56
2022-11-29T23:58:01.621Z,2.01
